sensor_id;sensor_type;location;lat;lon;timestamp;temperature;humidity
26304;DHT22;57113;48.680;8.890;2023-01-20T00:01:32;5.00;99.90
26304;DHT22;57113;48.680;8.890;2023-01-20T00:03:58;5.00;99.90
26304;DHT22;57113;48.680;8.890;2023-01-20T00:06:25;5.10;99.90
26304;DHT22;57113;48.680;8.890;2023-01-20T00:08:56;5.40;99.90
26304;DHT22;57113;48.680;8.890;2023-01-20T00:11:22;5.60;99.90
26304;DHT22;57113;48.680;8.890;2023-01-20T00:13:52;5.70;99.90
26304;DHT22;57113;48.680;8.890;2023-01-20T00:16:19;5.80;99.90
26304;DHT22;57113;48.680;8.890;2023-01-20T00:18:44;5.80;99.90
26304;DHT22;57113;48.680;8.890;2023-01-20T00:21:12;5.70;99.90
26304;DHT22;57113;48.680;8.890;2023-01-20T00:23:38;5.70;99.90
26304;DHT22;57113;48.680;8.890;2023-01-20T00:26:07;5.60;99.90
26304;DHT22;57113;48.680;8.890;2023-01-20T00:28:34;5.50;99.90
26304;DHT22;57113;48.680;8.890;2023-01-20T00:31:29;5.40;99.90
26304;DHT22;57113;48.680;8.890;2023-01-20T00:33:57;5.30;99.90
26304;DHT22;57113;48.680;8.890;2023-01-20T00:36:24;5.30;99.90
26304;DHT22;57113;48.680;8.890;2023-01-20T00:38:50;5.20;99.90
26304;DHT22;57113;48.680;8.890;2023-01-20T00:41:16;5.20;99.90
26304;DHT22;57113;48.680;8.890;2023-01-20T00:43:43;5.20;99.90
26304;DHT22;57113;48.680;8.890;2023-01-20T00:46:09;5.10;99.90
26304;DHT22;57113;48.680;8.890;2023-01-20T00:48:35;5.10;99.90
26304;DHT22;57113;48.680;8.890;2023-01-20T00:51:01;5.10;99.90
26304;DHT22;57113;48.680;8.890;2023-01-20T00:53:27;5.00;99.90
26304;DHT22;57113;48.680;8.890;2023-01-20T00:55:53;5.00;99.90
26304;DHT22;57113;48.680;8.890;2023-01-20T00:58:19;5.00;99.90
26304;DHT22;57113;48.680;8.890;2023-01-20T01:00:49;5.00;99.90
26304;DHT22;57113;48.680;8.890;2023-01-20T01:03:15;5.00;99.90
26304;DHT22;57113;48.680;8.890;2023-01-20T01:05:40;5.10;99.90
26304;DHT22;57113;48.680;8.890;2023-01-20T01:08:06;5.30;99.90
26304;DHT22;57113;48.680;8.890;2023-01-20T01:10:32;5.50;99.90
26304;DHT22;57113;48.680;8.890;2023-01-20T01:12:59;5.70;99.90
26304;DHT22;57113;48.680;8.890;2023-01-20T01:15:27;5.90;99.90
26304;DHT22;57113;48.680;8.890;2023-01-20T01:17:54;5.90;99.90
26304;DHT22;57113;48.680;8.890;2023-01-20T01:20:20;5.90;99.90
26304;DHT22;57113;48.680;8.890;2023-01-20T01:22:46;5.80;99.90
26304;DHT22;57113;48.680;8.890;2023-01-20T01:25:11;5.70;99.90
26304;DHT22;57113;48.680;8.890;2023-01-20T01:27:37;5.60;99.90
26304;DHT22;57113;48.680;8.890;2023-01-20T01:30:03;5.50;99.90
26304;DHT22;57113;48.680;8.890;2023-01-20T01:32:29;5.50;99.90
26304;DHT22;57113;48.680;8.890;2023-01-20T01:34:54;5.40;99.90
26304;DHT22;57113;48.680;8.890;2023-01-20T01:37:20;5.30;99.90
26304;DHT22;57113;48.680;8.890;2023-01-20T01:39:46;5.30;99.90
26304;DHT22;57113;48.680;8.890;2023-01-20T01:42:13;5.20;99.90
26304;DHT22;57113;48.680;8.890;2023-01-20T01:47:43;5.10;99.90
26304;DHT22;57113;48.680;8.890;2023-01-20T01:50:15;5.10;99.90
26304;DHT22;57113;48.680;8.890;2023-01-20T01:52:44;5.10;99.90
26304;DHT22;57113;48.680;8.890;2023-01-20T01:55:12;5.00;99.90
26304;DHT22;57113;48.680;8.890;2023-01-20T01:57:39;5.00;99.90
26304;DHT22;57113;48.680;8.890;2023-01-20T02:00:05;5.00;99.90
26304;DHT22;57113;48.680;8.890;2023-01-20T02:02:31;5.00;99.90
26304;DHT22;57113;48.680;8.890;2023-01-20T02:04:57;5.00;99.90
26304;DHT22;57113;48.680;8.890;2023-01-20T02:07:22;5.20;99.90
26304;DHT22;57113;48.680;8.890;2023-01-20T02:09:48;5.40;99.90
26304;DHT22;57113;48.680;8.890;2023-01-20T02:12:16;5.60;99.90
26304;DHT22;57113;48.680;8.890;2023-01-20T02:14:46;5.80;99.90
26304;DHT22;57113;48.680;8.890;2023-01-20T02:37:18;5.30;99.90
26304;DHT22;57113;48.680;8.890;2023-01-20T02:40:09;5.20;99.90
26304;DHT22;57113;48.680;8.890;2023-01-20T02:42:45;5.10;99.90
26304;DHT22;57113;48.680;8.890;2023-01-20T02:45:23;5.10;99.90
26304;DHT22;57113;48.680;8.890;2023-01-20T02:48:19;5.00;99.90
26304;DHT22;57113;48.680;8.890;2023-01-20T02:50:45;5.00;99.90
26304;DHT22;57113;48.680;8.890;2023-01-20T02:53:14;5.00;99.90
26304;DHT22;57113;48.680;8.890;2023-01-20T02:55:45;5.00;99.90
26304;DHT22;57113;48.680;8.890;2023-01-20T02:58:18;4.90;99.90
26304;DHT22;57113;48.680;8.890;2023-01-20T03:00:55;4.90;99.90
26304;DHT22;57113;48.680;8.890;2023-01-20T03:03:26;4.90;99.90
26304;DHT22;57113;48.680;8.890;2023-01-20T03:05:56;5.00;99.90
26304;DHT22;57113;48.680;8.890;2023-01-20T03:08:25;5.20;99.90
26304;DHT22;57113;48.680;8.890;2023-01-20T03:10:53;5.40;99.90
26304;DHT22;57113;48.680;8.890;2023-01-20T03:16:03;5.70;99.90
26304;DHT22;57113;48.680;8.890;2023-01-20T03:18:32;5.70;99.90
26304;DHT22;57113;48.680;8.890;2023-01-20T03:20:58;5.70;99.90
26304;DHT22;57113;48.680;8.890;2023-01-20T03:23:26;5.60;99.90
26304;DHT22;57113;48.680;8.890;2023-01-20T03:25:53;5.50;99.90
26304;DHT22;57113;48.680;8.890;2023-01-20T03:28:19;5.40;99.90
26304;DHT22;57113;48.680;8.890;2023-01-20T03:30:45;5.40;99.90
26304;DHT22;57113;48.680;8.890;2023-01-20T03:33:12;5.30;99.90
26304;DHT22;57113;48.680;8.890;2023-01-20T03:35:39;5.20;99.90
26304;DHT22;57113;48.680;8.890;2023-01-20T03:38:05;5.20;99.90
26304;DHT22;57113;48.680;8.890;2023-01-20T03:40:40;5.10;99.90
26304;DHT22;57113;48.680;8.890;2023-01-20T03:43:19;5.10;99.90
26304;DHT22;57113;48.680;8.890;2023-01-20T03:45:59;5.00;99.90
26304;DHT22;57113;48.680;8.890;2023-01-20T03:48:43;5.00;99.90
26304;DHT22;57113;48.680;8.890;2023-01-20T03:54:24;4.90;99.90
26304;DHT22;57113;48.680;8.890;2023-01-20T03:56:58;4.90;99.90
26304;DHT22;57113;48.680;8.890;2023-01-20T03:59:32;4.90;99.90
26304;DHT22;57113;48.680;8.890;2023-01-20T04:02:02;4.80;99.90
26304;DHT22;57113;48.680;8.890;2023-01-20T04:04:29;4.90;99.90
26304;DHT22;57113;48.680;8.890;2023-01-20T04:06:56;5.00;99.90
26304;DHT22;57113;48.680;8.890;2023-01-20T04:09:25;5.20;99.90
26304;DHT22;57113;48.680;8.890;2023-01-20T04:11:53;5.40;99.90
26304;DHT22;57113;48.680;8.890;2023-01-20T04:14:19;5.50;99.90
26304;DHT22;57113;48.680;8.890;2023-01-20T04:16:54;5.50;99.90
26304;DHT22;57113;48.680;8.890;2023-01-20T04:19:20;5.50;99.90
26304;DHT22;57113;48.680;8.890;2023-01-20T04:21:56;5.50;99.90
26304;DHT22;57113;48.680;8.890;2023-01-20T04:24:30;5.40;99.90
26304;DHT22;57113;48.680;8.890;2023-01-20T04:26:59;5.30;99.90
26304;DHT22;57113;48.680;8.890;2023-01-20T04:29:24;5.20;99.90
26304;DHT22;57113;48.680;8.890;2023-01-20T04:31:52;5.20;99.90
26304;DHT22;57113;48.680;8.890;2023-01-20T04:34:22;5.10;99.90
26304;DHT22;57113;48.680;8.890;2023-01-20T04:36:47;5.10;99.90
26304;DHT22;57113;48.680;8.890;2023-01-20T04:39:13;5.20;99.90
26304;DHT22;57113;48.680;8.890;2023-01-20T04:41:38;5.30;99.90
26304;DHT22;57113;48.680;8.890;2023-01-20T04:44:04;5.40;99.90
26304;DHT22;57113;48.680;8.890;2023-01-20T04:46:29;5.40;99.90
26304;DHT22;57113;48.680;8.890;2023-01-20T04:48:55;5.30;99.90
26304;DHT22;57113;48.680;8.890;2023-01-20T04:51:21;5.30;99.90
26304;DHT22;57113;48.680;8.890;2023-01-20T04:53:46;5.30;99.90
26304;DHT22;57113;48.680;8.890;2023-01-20T04:56:13;5.20;99.90
26304;DHT22;57113;48.680;8.890;2023-01-20T04:58:40;5.10;99.90
26304;DHT22;57113;48.680;8.890;2023-01-20T05:01:06;5.10;99.90
26304;DHT22;57113;48.680;8.890;2023-01-20T05:03:32;5.10;99.90
26304;DHT22;57113;48.680;8.890;2023-01-20T05:05:58;5.20;99.90
26304;DHT22;57113;48.680;8.890;2023-01-20T05:08:24;5.30;99.90
26304;DHT22;57113;48.680;8.890;2023-01-20T05:10:49;5.40;99.90
26304;DHT22;57113;48.680;8.890;2023-01-20T05:13:15;5.40;99.90
26304;DHT22;57113;48.680;8.890;2023-01-20T05:15:42;5.30;99.90
26304;DHT22;57113;48.680;8.890;2023-01-20T05:18:08;5.30;99.90
26304;DHT22;57113;48.680;8.890;2023-01-20T05:20:33;5.20;99.90
26304;DHT22;57113;48.680;8.890;2023-01-20T05:22:59;5.20;99.90
26304;DHT22;57113;48.680;8.890;2023-01-20T05:25:25;5.10;99.90
26304;DHT22;57113;48.680;8.890;2023-01-20T05:27:50;5.10;99.90
26304;DHT22;57113;48.680;8.890;2023-01-20T05:30:16;5.10;99.90
26304;DHT22;57113;48.680;8.890;2023-01-20T05:32:43;5.20;99.90
26304;DHT22;57113;48.680;8.890;2023-01-20T05:35:09;5.30;99.90
26304;DHT22;57113;48.680;8.890;2023-01-20T05:37:35;5.40;99.90
26304;DHT22;57113;48.680;8.890;2023-01-20T05:40:00;5.40;99.90
26304;DHT22;57113;48.680;8.890;2023-01-20T05:42:26;5.40;99.90
26304;DHT22;57113;48.680;8.890;2023-01-20T05:44:52;5.30;99.90
26304;DHT22;57113;48.680;8.890;2023-01-20T05:47:17;5.20;99.90
26304;DHT22;57113;48.680;8.890;2023-01-20T05:49:43;5.20;99.90
26304;DHT22;57113;48.680;8.890;2023-01-20T05:52:09;5.20;99.90
26304;DHT22;57113;48.680;8.890;2023-01-20T05:54:34;5.10;99.90
26304;DHT22;57113;48.680;8.890;2023-01-20T05:57:00;5.10;99.90
26304;DHT22;57113;48.680;8.890;2023-01-20T05:59:25;5.30;99.90
26304;DHT22;57113;48.680;8.890;2023-01-20T06:01:51;5.30;99.90
26304;DHT22;57113;48.680;8.890;2023-01-20T06:04:17;5.40;99.90
26304;DHT22;57113;48.680;8.890;2023-01-20T06:06:42;5.40;99.90
26304;DHT22;57113;48.680;8.890;2023-01-20T06:09:08;5.30;99.90
26304;DHT22;57113;48.680;8.890;2023-01-20T06:11:35;5.30;99.90
26304;DHT22;57113;48.680;8.890;2023-01-20T06:14:00;5.20;99.90
26304;DHT22;57113;48.680;8.890;2023-01-20T06:16:26;5.20;99.90
26304;DHT22;57113;48.680;8.890;2023-01-20T06:18:52;5.10;99.90
26304;DHT22;57113;48.680;8.890;2023-01-20T06:21:17;5.10;99.90
26304;DHT22;57113;48.680;8.890;2023-01-20T06:23:43;5.10;99.90
26304;DHT22;57113;48.680;8.890;2023-01-20T06:26:13;5.30;99.90
26304;DHT22;57113;48.680;8.890;2023-01-20T06:28:39;5.40;99.90
26304;DHT22;57113;48.680;8.890;2023-01-20T06:31:07;5.40;99.90
26304;DHT22;57113;48.680;8.890;2023-01-20T06:33:33;5.30;99.90
26304;DHT22;57113;48.680;8.890;2023-01-20T06:36:00;5.30;99.90
26304;DHT22;57113;48.680;8.890;2023-01-20T06:38:29;5.20;99.90
26304;DHT22;57113;48.680;8.890;2023-01-20T06:41:06;5.20;99.90
26304;DHT22;57113;48.680;8.890;2023-01-20T06:43:33;5.10;99.90
26304;DHT22;57113;48.680;8.890;2023-01-20T06:46:04;5.00;99.90
26304;DHT22;57113;48.680;8.890;2023-01-20T06:48:31;5.10;99.90
26304;DHT22;57113;48.680;8.890;2023-01-20T06:51:04;5.10;99.90
26304;DHT22;57113;48.680;8.890;2023-01-20T06:53:30;5.20;99.90
26304;DHT22;57113;48.680;8.890;2023-01-20T06:55:57;5.30;99.90
26304;DHT22;57113;48.680;8.890;2023-01-20T06:58:24;5.30;99.90
26304;DHT22;57113;48.680;8.890;2023-01-20T07:00:51;5.30;99.90
26304;DHT22;57113;48.680;8.890;2023-01-20T07:03:17;5.20;99.90
26304;DHT22;57113;48.680;8.890;2023-01-20T07:05:42;5.10;99.90
26304;DHT22;57113;48.680;8.890;2023-01-20T07:08:08;5.10;99.90
26304;DHT22;57113;48.680;8.890;2023-01-20T07:10:34;5.00;99.90
26304;DHT22;57113;48.680;8.890;2023-01-20T07:12:59;4.90;99.90
26304;DHT22;57113;48.680;8.890;2023-01-20T07:15:25;5.00;99.90
26304;DHT22;57113;48.680;8.890;2023-01-20T07:17:50;5.10;99.90
26304;DHT22;57113;48.680;8.890;2023-01-20T07:20:16;5.10;99.90
26304;DHT22;57113;48.680;8.890;2023-01-20T07:22:42;5.20;99.90
26304;DHT22;57113;48.680;8.890;2023-01-20T07:25:08;5.10;99.90
26304;DHT22;57113;48.680;8.890;2023-01-20T07:27:33;5.10;99.90
26304;DHT22;57113;48.680;8.890;2023-01-20T07:29:59;5.10;99.90
26304;DHT22;57113;48.680;8.890;2023-01-20T07:32:28;5.00;99.90
26304;DHT22;57113;48.680;8.890;2023-01-20T07:34:54;5.00;99.90
26304;DHT22;57113;48.680;8.890;2023-01-20T07:37:20;4.90;99.90
26304;DHT22;57113;48.680;8.890;2023-01-20T07:39:45;4.80;99.90
26304;DHT22;57113;48.680;8.890;2023-01-20T07:42:11;4.80;99.90
26304;DHT22;57113;48.680;8.890;2023-01-20T07:44:36;4.80;99.90
26304;DHT22;57113;48.680;8.890;2023-01-20T07:47:02;4.70;99.90
26304;DHT22;57113;48.680;8.890;2023-01-20T07:49:27;4.80;99.90
26304;DHT22;57113;48.680;8.890;2023-01-20T07:51:53;4.90;99.90
26304;DHT22;57113;48.680;8.890;2023-01-20T07:54:19;5.10;99.90
26304;DHT22;57113;48.680;8.890;2023-01-20T07:56:44;5.10;99.90
26304;DHT22;57113;48.680;8.890;2023-01-20T07:59:10;5.10;99.90
26304;DHT22;57113;48.680;8.890;2023-01-20T08:01:36;5.10;99.90
26304;DHT22;57113;48.680;8.890;2023-01-20T08:04:01;5.10;99.90
26304;DHT22;57113;48.680;8.890;2023-01-20T08:06:28;5.00;99.90
26304;DHT22;57113;48.680;8.890;2023-01-20T08:08:54;5.00;99.90
26304;DHT22;57113;48.680;8.890;2023-01-20T08:11:21;4.90;99.90
26304;DHT22;57113;48.680;8.890;2023-01-20T08:13:47;4.80;99.90
26304;DHT22;57113;48.680;8.890;2023-01-20T08:16:15;4.80;99.90
26304;DHT22;57113;48.680;8.890;2023-01-20T08:18:42;4.80;99.90
26304;DHT22;57113;48.680;8.890;2023-01-20T08:21:24;4.80;99.90
26304;DHT22;57113;48.680;8.890;2023-01-20T08:23:50;5.00;99.90
26304;DHT22;57113;48.680;8.890;2023-01-20T08:26:16;5.10;99.90
26304;DHT22;57113;48.680;8.890;2023-01-20T08:28:43;5.20;99.90
26304;DHT22;57113;48.680;8.890;2023-01-20T08:31:11;5.30;99.90
26304;DHT22;57113;48.680;8.890;2023-01-20T08:33:38;5.30;99.90
26304;DHT22;57113;48.680;8.890;2023-01-20T08:36:07;5.20;99.90
26304;DHT22;57113;48.680;8.890;2023-01-20T08:38:34;5.20;99.90
26304;DHT22;57113;48.680;8.890;2023-01-20T08:40:59;5.10;99.90
26304;DHT22;57113;48.680;8.890;2023-01-20T08:43:25;5.10;99.90
26304;DHT22;57113;48.680;8.890;2023-01-20T08:46:03;4.90;99.90
26304;DHT22;57113;48.680;8.890;2023-01-20T08:48:28;4.70;99.90
26304;DHT22;57113;48.680;8.890;2023-01-20T08:50:54;4.80;99.90
26304;DHT22;57113;48.680;8.890;2023-01-20T08:53:20;4.80;99.90
26304;DHT22;57113;48.680;8.890;2023-01-20T08:55:59;4.90;99.90
26304;DHT22;57113;48.680;8.890;2023-01-20T08:58:26;5.00;99.90
26304;DHT22;57113;48.680;8.890;2023-01-20T09:00:52;4.90;99.90
26304;DHT22;57113;48.680;8.890;2023-01-20T09:03:18;5.00;99.90
26304;DHT22;57113;48.680;8.890;2023-01-20T09:05:43;5.00;99.90
26304;DHT22;57113;48.680;8.890;2023-01-20T09:08:09;4.90;99.90
26304;DHT22;57113;48.680;8.890;2023-01-20T09:10:35;5.00;99.90
26304;DHT22;57113;48.680;8.890;2023-01-20T09:13:00;5.10;99.90
26304;DHT22;57113;48.680;8.890;2023-01-20T09:15:26;5.30;99.90
26304;DHT22;57113;48.680;8.890;2023-01-20T09:17:52;5.40;99.90
26304;DHT22;57113;48.680;8.890;2023-01-20T09:20:17;5.40;99.90
26304;DHT22;57113;48.680;8.890;2023-01-20T09:22:43;5.50;99.90
26304;DHT22;57113;48.680;8.890;2023-01-20T09:25:09;5.50;99.90
26304;DHT22;57113;48.680;8.890;2023-01-20T09:27:35;5.50;99.90
26304;DHT22;57113;48.680;8.890;2023-01-20T09:30:02;5.50;99.90
26304;DHT22;57113;48.680;8.890;2023-01-20T09:32:28;5.40;99.90
26304;DHT22;57113;48.680;8.890;2023-01-20T09:34:54;5.40;99.90
26304;DHT22;57113;48.680;8.890;2023-01-20T09:37:21;5.50;99.90
26304;DHT22;57113;48.680;8.890;2023-01-20T09:40:12;5.50;99.90
26304;DHT22;57113;48.680;8.890;2023-01-20T09:46:08;5.50;99.90
26304;DHT22;57113;48.680;8.890;2023-01-20T09:48:51;5.50;99.90
26304;DHT22;57113;48.680;8.890;2023-01-20T09:51:59;5.50;99.90
26304;DHT22;57113;48.680;8.890;2023-01-20T09:54:49;5.40;99.90
26304;DHT22;57113;48.680;8.890;2023-01-20T09:57:18;5.40;99.90
26304;DHT22;57113;48.680;8.890;2023-01-20T09:59:54;5.40;99.90
26304;DHT22;57113;48.680;8.890;2023-01-20T10:02:24;5.30;99.90
26304;DHT22;57113;48.680;8.890;2023-01-20T10:04:59;5.10;99.90
26304;DHT22;57113;48.680;8.890;2023-01-20T10:07:51;5.00;99.90
26304;DHT22;57113;48.680;8.890;2023-01-20T10:10:28;5.00;99.90
26304;DHT22;57113;48.680;8.890;2023-01-20T10:13:05;5.00;99.90
26304;DHT22;57113;48.680;8.890;2023-01-20T10:15:35;5.00;99.90
26304;DHT22;57113;48.680;8.890;2023-01-20T10:19:00;5.00;99.90
26304;DHT22;57113;48.680;8.890;2023-01-20T10:21:24;5.00;99.90
26304;DHT22;57113;48.680;8.890;2023-01-20T10:23:56;5.10;99.90
26304;DHT22;57113;48.680;8.890;2023-01-20T10:26:29;5.10;99.90
26304;DHT22;57113;48.680;8.890;2023-01-20T10:29:00;5.10;99.90
26304;DHT22;57113;48.680;8.890;2023-01-20T10:31:29;5.20;99.90
26304;DHT22;57113;48.680;8.890;2023-01-20T10:34:21;5.20;99.90
26304;DHT22;57113;48.680;8.890;2023-01-20T10:36:58;5.20;99.90
26304;DHT22;57113;48.680;8.890;2023-01-20T10:39:47;5.30;99.90
26304;DHT22;57113;48.680;8.890;2023-01-20T10:42:16;5.30;99.90
26304;DHT22;57113;48.680;8.890;2023-01-20T10:44:42;5.10;99.90
26304;DHT22;57113;48.680;8.890;2023-01-20T10:47:15;5.00;99.90
26304;DHT22;57113;48.680;8.890;2023-01-20T10:52:34;4.90;99.90
26304;DHT22;57113;48.680;8.890;2023-01-20T10:55:29;5.00;99.90
26304;DHT22;57113;48.680;8.890;2023-01-20T10:58:07;5.00;99.90
26304;DHT22;57113;48.680;8.890;2023-01-20T11:00:38;5.10;99.90
26304;DHT22;57113;48.680;8.890;2023-01-20T11:03:05;5.10;99.90
26304;DHT22;57113;48.680;8.890;2023-01-20T11:05:36;5.10;99.90
26304;DHT22;57113;48.680;8.890;2023-01-20T11:08:08;5.20;99.90
26304;DHT22;57113;48.680;8.890;2023-01-20T11:10:34;5.20;99.90
26304;DHT22;57113;48.680;8.890;2023-01-20T11:13:01;5.30;99.90
26304;DHT22;57113;48.680;8.890;2023-01-20T11:15:35;5.30;99.90
26304;DHT22;57113;48.680;8.890;2023-01-20T11:18:31;5.30;99.90
26304;DHT22;57113;48.680;8.890;2023-01-20T11:21:02;5.20;99.90
26304;DHT22;57113;48.680;8.890;2023-01-20T11:26:06;5.10;99.90
26304;DHT22;57113;48.680;8.890;2023-01-20T11:31:12;5.10;99.90
26304;DHT22;57113;48.680;8.890;2023-01-20T11:33:38;5.20;99.90
26304;DHT22;57113;48.680;8.890;2023-01-20T11:36:17;5.20;99.90
26304;DHT22;57113;48.680;8.890;2023-01-20T11:38:50;5.30;99.90
26304;DHT22;57113;48.680;8.890;2023-01-20T11:41:21;5.30;99.90
26304;DHT22;57113;48.680;8.890;2023-01-20T11:43:48;5.40;99.90
26304;DHT22;57113;48.680;8.890;2023-01-20T11:48:44;5.40;99.90
26304;DHT22;57113;48.680;8.890;2023-01-20T11:51:24;5.40;99.90
26304;DHT22;57113;48.680;8.890;2023-01-20T11:53:51;5.50;99.90
26304;DHT22;57113;48.680;8.890;2023-01-20T11:56:39;5.50;99.90
26304;DHT22;57113;48.680;8.890;2023-01-20T11:59:25;5.60;99.90
26304;DHT22;57113;48.680;8.890;2023-01-20T12:02:17;5.60;99.90
26304;DHT22;57113;48.680;8.890;2023-01-20T12:05:09;5.60;99.90
26304;DHT22;57113;48.680;8.890;2023-01-20T12:07:47;5.60;99.90
26304;DHT22;57113;48.680;8.890;2023-01-20T12:12:50;5.70;99.90
26304;DHT22;57113;48.680;8.890;2023-01-20T12:15:25;5.70;99.90
26304;DHT22;57113;48.680;8.890;2023-01-20T12:18:14;5.70;99.90
26304;DHT22;57113;48.680;8.890;2023-01-20T12:20:58;5.70;99.90
26304;DHT22;57113;48.680;8.890;2023-01-20T12:23:59;5.80;99.90
26304;DHT22;57113;48.680;8.890;2023-01-20T12:26:26;5.80;99.90
26304;DHT22;57113;48.680;8.890;2023-01-20T12:31:31;5.80;99.90
26304;DHT22;57113;48.680;8.890;2023-01-20T12:39:22;5.90;99.90
26304;DHT22;57113;48.680;8.890;2023-01-20T12:45:10;5.90;99.90
26304;DHT22;57113;48.680;8.890;2023-01-20T12:53:20;5.90;99.90
26304;DHT22;57113;48.680;8.890;2023-01-20T13:20:22;6.10;99.90
26304;DHT22;57113;48.680;8.890;2023-01-20T13:22:49;6.10;99.90
26304;DHT22;57113;48.680;8.890;2023-01-20T13:25:16;6.00;99.90
26304;DHT22;57113;48.680;8.890;2023-01-20T13:27:44;5.90;99.90
26304;DHT22;57113;48.680;8.890;2023-01-20T13:30:39;5.90;99.90
26304;DHT22;57113;48.680;8.890;2023-01-20T13:35:48;5.90;99.90
26304;DHT22;57113;48.680;8.890;2023-01-20T13:38:26;5.90;99.90
26304;DHT22;57113;48.680;8.890;2023-01-20T13:40:57;5.90;99.90
26304;DHT22;57113;48.680;8.890;2023-01-20T13:48:28;5.90;99.90
26304;DHT22;57113;48.680;8.890;2023-01-20T13:50:54;5.90;99.90
26304;DHT22;57113;48.680;8.890;2023-01-20T13:53:40;5.90;99.90
26304;DHT22;57113;48.680;8.890;2023-01-20T13:58:53;5.90;99.90
26304;DHT22;57113;48.680;8.890;2023-01-20T14:01:19;5.90;99.90
26304;DHT22;57113;48.680;8.890;2023-01-20T14:04:00;5.90;99.90
26304;DHT22;57113;48.680;8.890;2023-01-20T14:06:27;5.90;99.90
26304;DHT22;57113;48.680;8.890;2023-01-20T14:08:53;5.90;99.90
26304;DHT22;57113;48.680;8.890;2023-01-20T14:11:22;5.90;99.90
26304;DHT22;57113;48.680;8.890;2023-01-20T14:14:15;5.90;99.90
26304;DHT22;57113;48.680;8.890;2023-01-20T14:16:42;5.80;99.90
26304;DHT22;57113;48.680;8.890;2023-01-20T14:19:33;5.90;99.90
26304;DHT22;57113;48.680;8.890;2023-01-20T14:22:01;5.80;99.90
26304;DHT22;57113;48.680;8.890;2023-01-20T14:24:27;5.80;99.90
26304;DHT22;57113;48.680;8.890;2023-01-20T14:29:41;5.80;99.90
26304;DHT22;57113;48.680;8.890;2023-01-20T14:34:51;5.80;99.90
26304;DHT22;57113;48.680;8.890;2023-01-20T14:37:28;5.80;99.90
26304;DHT22;57113;48.680;8.890;2023-01-20T14:39:56;5.80;99.90
26304;DHT22;57113;48.680;8.890;2023-01-20T14:42:25;5.80;99.90
26304;DHT22;57113;48.680;8.890;2023-01-20T14:44:55;5.80;99.90
26304;DHT22;57113;48.680;8.890;2023-01-20T14:47:24;5.70;99.90
26304;DHT22;57113;48.680;8.890;2023-01-20T14:49:51;5.70;99.90
26304;DHT22;57113;48.680;8.890;2023-01-20T14:54:49;5.70;99.90
26304;DHT22;57113;48.680;8.890;2023-01-20T14:57:25;5.70;99.90
26304;DHT22;57113;48.680;8.890;2023-01-20T15:00:08;5.70;99.90
26304;DHT22;57113;48.680;8.890;2023-01-20T15:02:36;5.70;99.90
26304;DHT22;57113;48.680;8.890;2023-01-20T15:05:21;5.70;99.90
26304;DHT22;57113;48.680;8.890;2023-01-20T15:08:15;5.70;99.90
26304;DHT22;57113;48.680;8.890;2023-01-20T15:10:59;5.70;99.90
26304;DHT22;57113;48.680;8.890;2023-01-20T15:13:32;5.70;99.90
26304;DHT22;57113;48.680;8.890;2023-01-20T15:16:11;5.70;99.90
26304;DHT22;57113;48.680;8.890;2023-01-20T15:18:40;5.70;99.90
26304;DHT22;57113;48.680;8.890;2023-01-20T15:21:24;5.70;99.90
26304;DHT22;57113;48.680;8.890;2023-01-20T15:23:51;5.70;99.90
26304;DHT22;57113;48.680;8.890;2023-01-20T15:26:29;5.60;99.90
26304;DHT22;57113;48.680;8.890;2023-01-20T15:28:56;5.60;99.90
26304;DHT22;57113;48.680;8.890;2023-01-20T15:31:23;5.60;99.90
26304;DHT22;57113;48.680;8.890;2023-01-20T15:33:49;5.60;99.90
26304;DHT22;57113;48.680;8.890;2023-01-20T15:38:46;5.60;99.90
26304;DHT22;57113;48.680;8.890;2023-01-20T15:41:12;5.60;99.90
26304;DHT22;57113;48.680;8.890;2023-01-20T15:43:38;5.60;99.90
26304;DHT22;57113;48.680;8.890;2023-01-20T15:46:12;5.50;99.90
26304;DHT22;57113;48.680;8.890;2023-01-20T15:48:38;5.60;99.90
26304;DHT22;57113;48.680;8.890;2023-01-20T15:51:04;5.50;99.90
26304;DHT22;57113;48.680;8.890;2023-01-20T15:53:33;5.50;99.90
26304;DHT22;57113;48.680;8.890;2023-01-20T15:55:59;5.50;99.90
26304;DHT22;57113;48.680;8.890;2023-01-20T15:58:30;5.50;99.90
26304;DHT22;57113;48.680;8.890;2023-01-20T16:00:58;5.50;99.90
26304;DHT22;57113;48.680;8.890;2023-01-20T16:03:25;5.50;99.90
26304;DHT22;57113;48.680;8.890;2023-01-20T16:05:52;5.50;99.90
26304;DHT22;57113;48.680;8.890;2023-01-20T16:08:21;5.50;99.90
26304;DHT22;57113;48.680;8.890;2023-01-20T16:10:46;5.50;99.90
26304;DHT22;57113;48.680;8.890;2023-01-20T16:13:13;5.40;99.90
26304;DHT22;57113;48.680;8.890;2023-01-20T16:15:39;5.40;99.90
26304;DHT22;57113;48.680;8.890;2023-01-20T16:18:14;5.40;99.90
26304;DHT22;57113;48.680;8.890;2023-01-20T16:20:42;5.40;99.90
26304;DHT22;57113;48.680;8.890;2023-01-20T16:23:08;5.40;99.90
26304;DHT22;57113;48.680;8.890;2023-01-20T16:25:35;5.40;99.90
26304;DHT22;57113;48.680;8.890;2023-01-20T16:28:01;5.30;99.90
26304;DHT22;57113;48.680;8.890;2023-01-20T16:30:29;5.30;99.90
26304;DHT22;57113;48.680;8.890;2023-01-20T16:32:55;5.30;99.90
26304;DHT22;57113;48.680;8.890;2023-01-20T16:35:21;5.30;99.90
26304;DHT22;57113;48.680;8.890;2023-01-20T16:37:48;5.30;99.90
26304;DHT22;57113;48.680;8.890;2023-01-20T16:40:19;5.30;99.90
26304;DHT22;57113;48.680;8.890;2023-01-20T16:42:45;5.30;99.90
26304;DHT22;57113;48.680;8.890;2023-01-20T16:45:25;5.30;99.90
26304;DHT22;57113;48.680;8.890;2023-01-20T16:47:51;5.20;99.90
26304;DHT22;57113;48.680;8.890;2023-01-20T16:50:17;5.30;99.90
26304;DHT22;57113;48.680;8.890;2023-01-20T16:52:43;5.20;99.90
26304;DHT22;57113;48.680;8.890;2023-01-20T16:55:08;5.20;99.90
26304;DHT22;57113;48.680;8.890;2023-01-20T16:57:34;5.20;99.90
26304;DHT22;57113;48.680;8.890;2023-01-20T17:00:00;5.20;99.90
26304;DHT22;57113;48.680;8.890;2023-01-20T17:02:25;5.20;99.90
26304;DHT22;57113;48.680;8.890;2023-01-20T17:04:51;5.20;99.90
26304;DHT22;57113;48.680;8.890;2023-01-20T17:07:17;5.40;99.90
26304;DHT22;57113;48.680;8.890;2023-01-20T17:09:42;5.60;99.90
26304;DHT22;57113;48.680;8.890;2023-01-20T17:12:08;5.70;99.90
26304;DHT22;57113;48.680;8.890;2023-01-20T17:14:33;5.80;99.90
26304;DHT22;57113;48.680;8.890;2023-01-20T17:16:59;5.80;99.90
26304;DHT22;57113;48.680;8.890;2023-01-20T17:19:25;5.80;99.90
26304;DHT22;57113;48.680;8.890;2023-01-20T17:21:50;5.70;99.90
26304;DHT22;57113;48.680;8.890;2023-01-20T17:24:16;5.70;99.90
26304;DHT22;57113;48.680;8.890;2023-01-20T17:26:43;5.60;99.90
26304;DHT22;57113;48.680;8.890;2023-01-20T17:29:09;5.60;99.90
26304;DHT22;57113;48.680;8.890;2023-01-20T17:31:35;5.50;99.90
26304;DHT22;57113;48.680;8.890;2023-01-20T17:34:07;5.50;99.90
26304;DHT22;57113;48.680;8.890;2023-01-20T17:36:33;5.40;99.90
26304;DHT22;57113;48.680;8.890;2023-01-20T17:38:59;5.30;99.90
26304;DHT22;57113;48.680;8.890;2023-01-20T17:41:26;5.30;99.90
26304;DHT22;57113;48.680;8.890;2023-01-20T17:43:52;5.30;99.90
26304;DHT22;57113;48.680;8.890;2023-01-20T17:46:22;5.20;99.90
26304;DHT22;57113;48.680;8.890;2023-01-20T17:48:49;5.20;99.90